createdAt,value
2018-08-28T00:01:10.381Z,15.90
2018-08-28T00:03:38.690Z,15.90
2018-08-28T00:06:07.018Z,15.90
2018-08-28T00:08:35.294Z,15.90
2018-08-28T00:11:03.578Z,15.80
2018-08-28T00:13:31.916Z,15.80
2018-08-28T00:16:00.302Z,15.80
2018-08-28T00:18:28.660Z,15.70
2018-08-28T00:20:56.925Z,15.70
2018-08-28T00:23:25.217Z,15.60
2018-08-28T00:25:53.490Z,15.50
2018-08-28T00:28:21.733Z,15.40
2018-08-28T00:30:49.991Z,15.40
2018-08-28T00:33:18.222Z,15.30
2018-08-28T00:35:46.513Z,15.20
2018-08-28T00:38:14.785Z,15.10
2018-08-28T00:40:43.128Z,15.00
2018-08-28T00:43:11.379Z,14.90
2018-08-28T00:45:39.711Z,14.90
2018-08-28T00:48:08.028Z,15.00
2018-08-28T00:50:36.273Z,14.90
2018-08-28T00:53:04.652Z,14.90
2018-08-28T00:55:32.901Z,14.90
2018-08-28T00:58:01.199Z,14.80
2018-08-28T01:00:29.582Z,14.80
2018-08-28T01:02:57.834Z,14.70
2018-08-28T01:05:26.082Z,14.60
2018-08-28T01:07:54.722Z,14.50
2018-08-28T01:10:22.999Z,14.40
2018-08-28T01:12:51.262Z,14.30
2018-08-28T01:15:19.527Z,14.30
2018-08-28T01:17:47.772Z,14.30
2018-08-28T01:20:16.029Z,14.30
2018-08-28T01:22:44.307Z,14.30
2018-08-28T01:25:12.564Z,14.30
2018-08-28T01:27:40.841Z,14.30
2018-08-28T01:30:09.133Z,14.40
2018-08-28T01:32:37.400Z,14.40
2018-08-28T01:35:05.774Z,14.40
2018-08-28T01:37:34.069Z,14.40
2018-08-28T01:40:02.348Z,14.40
2018-08-28T01:42:30.726Z,14.40
2018-08-28T01:44:59.005Z,14.40
2018-08-28T01:47:27.310Z,14.30
2018-08-28T01:49:55.644Z,14.30
2018-08-28T01:52:23.918Z,14.30
2018-08-28T01:54:52.203Z,14.30
2018-08-28T01:57:20.489Z,14.30
2018-08-28T01:59:48.838Z,14.30
2018-08-28T02:02:17.235Z,14.30
2018-08-28T02:04:45.503Z,14.30
2018-08-28T02:07:13.891Z,14.20
2018-08-28T02:09:42.166Z,14.20
2018-08-28T02:12:10.458Z,14.10
2018-08-28T02:14:38.797Z,14.00
2018-08-28T02:17:07.101Z,13.90
2018-08-28T02:19:35.346Z,13.80
2018-08-28T02:22:03.655Z,13.80
2018-08-28T02:24:31.901Z,13.70
2018-08-28T02:27:00.219Z,13.60
2018-08-28T02:29:29.502Z,13.60
2018-08-28T02:31:57.783Z,13.50
2018-08-28T02:34:26.030Z,13.50
2018-08-28T02:36:54.349Z,13.50
2018-08-28T02:39:22.604Z,13.40
2018-08-28T02:41:50.878Z,13.50
2018-08-28T02:44:19.282Z,13.50
2018-08-28T02:46:47.566Z,13.40
2018-08-28T02:49:15.909Z,13.40
2018-08-28T02:51:44.155Z,13.40
2018-08-28T02:54:12.434Z,13.40
2018-08-28T02:56:40.689Z,13.50
2018-08-28T02:59:09.000Z,13.50
2018-08-28T03:01:37.262Z,13.60
2018-08-28T03:04:05.535Z,13.60
2018-08-28T03:06:33.929Z,13.60
2018-08-28T03:09:02.212Z,13.50
2018-08-28T03:11:30.531Z,13.50
2018-08-28T03:13:58.819Z,13.40
2018-08-28T03:16:27.100Z,13.40
2018-08-28T03:18:55.371Z,13.30
2018-08-28T03:21:23.614Z,13.30
2018-08-28T03:23:51.876Z,13.30
2018-08-28T03:26:20.126Z,13.10
2018-08-28T03:28:48.435Z,13.10
2018-08-28T03:31:16.742Z,13.00
2018-08-28T03:33:45.050Z,12.90
2018-08-28T03:36:13.415Z,12.80
2018-08-28T03:38:41.807Z,12.80
2018-08-28T03:41:10.045Z,12.70
2018-08-28T03:43:38.351Z,12.60
2018-08-28T03:46:06.590Z,12.50
2018-08-28T03:48:34.895Z,12.40
2018-08-28T03:51:03.152Z,12.40
2018-08-28T03:53:31.428Z,12.30
2018-08-28T03:55:59.733Z,12.30
2018-08-28T03:58:27.999Z,12.20
2018-08-28T04:00:56.292Z,12.20
2018-08-28T04:03:24.609Z,12.10
2018-08-28T04:05:52.913Z,12.10
2018-08-28T04:08:21.184Z,12.00
2018-08-28T04:10:49.444Z,12.00
2018-08-28T04:13:17.719Z,11.90
2018-08-28T04:15:45.970Z,11.80
2018-08-28T04:18:14.263Z,11.80
2018-08-28T04:20:42.547Z,11.80
2018-08-28T04:23:10.814Z,11.70
2018-08-28T04:25:39.103Z,11.70
2018-08-28T04:28:07.389Z,11.70
2018-08-28T04:30:35.758Z,11.60
2018-08-28T04:33:03.999Z,11.60
2018-08-28T04:35:32.251Z,11.60
2018-08-28T04:38:00.509Z,11.50
2018-08-28T04:40:28.830Z,11.50
2018-08-28T04:42:57.110Z,11.50
2018-08-28T04:45:25.350Z,11.50
2018-08-28T04:47:53.766Z,11.60
2018-08-28T04:50:22.114Z,11.60
2018-08-28T04:52:50.374Z,11.60
2018-08-28T04:55:18.665Z,11.70
2018-08-28T04:57:46.962Z,11.80
2018-08-28T05:00:15.202Z,11.80
2018-08-28T05:02:43.461Z,11.80
2018-08-28T05:05:11.810Z,11.90
2018-08-28T05:07:40.077Z,11.90
2018-08-28T05:10:08.365Z,12.00
2018-08-28T05:12:36.626Z,12.10
2018-08-28T05:15:04.878Z,12.10
2018-08-28T05:17:33.210Z,12.30
2018-08-28T05:20:01.547Z,12.40
2018-08-28T05:22:29.815Z,12.50
2018-08-28T05:24:58.121Z,12.70
2018-08-28T05:27:26.527Z,12.90
2018-08-28T05:29:54.904Z,13.00
2018-08-28T05:32:23.376Z,13.00
2018-08-28T05:34:51.638Z,13.10
2018-08-28T05:37:19.903Z,13.20
2018-08-28T05:39:48.286Z,13.40
2018-08-28T05:42:16.579Z,13.40
2018-08-28T05:44:44.865Z,13.50
2018-08-28T05:47:13.125Z,13.70
2018-08-28T05:49:41.509Z,13.70
2018-08-28T05:52:09.899Z,13.90
2018-08-28T05:54:38.283Z,14.00
2018-08-28T05:57:06.719Z,14.10
2018-08-28T05:59:35.003Z,14.30
2018-08-28T06:02:03.317Z,14.80
2018-08-28T06:04:31.581Z,15.10
2018-08-28T06:06:59.854Z,15.30
2018-08-28T06:09:28.110Z,15.40
2018-08-28T06:11:56.425Z,15.50
2018-08-28T06:14:25.686Z,15.60
2018-08-28T06:16:53.988Z,15.50
2018-08-28T06:19:22.299Z,15.70
2018-08-28T06:21:50.526Z,15.80
2018-08-28T06:24:18.835Z,15.90
2018-08-28T06:26:47.083Z,16.00
2018-08-28T06:29:15.392Z,16.10
2018-08-28T06:31:43.677Z,16.30
2018-08-28T06:34:11.979Z,16.40
2018-08-28T06:36:40.324Z,16.50
2018-08-28T06:39:09.247Z,16.60
2018-08-28T06:41:37.616Z,16.70
2018-08-28T06:44:06.031Z,16.80
2018-08-28T06:46:34.354Z,16.90
2018-08-28T06:49:02.619Z,17.10
2018-08-28T06:51:30.938Z,17.40
2018-08-28T06:53:59.291Z,17.70
2018-08-28T06:56:27.579Z,17.90
2018-08-28T06:58:55.949Z,18.10
2018-08-28T07:01:24.182Z,18.30
2018-08-28T07:03:52.577Z,18.20
2018-08-28T07:06:20.882Z,18.20
2018-08-28T07:08:49.162Z,18.30
2018-08-28T07:11:17.435Z,18.30
2018-08-28T07:13:45.678Z,18.40
2018-08-28T07:16:14.094Z,18.50
2018-08-28T07:18:42.426Z,18.90
2018-08-28T07:21:10.643Z,18.90
2018-08-28T07:23:38.940Z,19.30
2018-08-28T07:26:07.240Z,19.70
2018-08-28T07:28:35.493Z,19.80
2018-08-28T07:31:03.769Z,20.10
2018-08-28T07:33:32.062Z,20.50
2018-08-28T07:36:00.343Z,20.70
2018-08-28T07:38:28.625Z,21.60
2018-08-28T07:40:56.923Z,22.10
2018-08-28T07:43:25.193Z,23.20
2018-08-28T07:45:53.489Z,23.40
2018-08-28T07:48:21.863Z,24.70
2018-08-28T07:50:50.065Z,25.90
2018-08-28T07:53:18.351Z,26.90
2018-08-28T07:55:46.607Z,28.00
2018-08-28T07:58:14.898Z,28.80
2018-08-28T08:00:43.238Z,29.40
2018-08-28T08:03:11.623Z,30.00
2018-08-28T08:05:39.910Z,30.50
2018-08-28T08:08:08.239Z,30.30
2018-08-28T08:10:36.669Z,30.70
2018-08-28T08:13:05.053Z,30.40
2018-08-28T08:15:33.340Z,30.20
2018-08-28T08:18:01.602Z,30.10
2018-08-28T08:20:29.934Z,30.20
2018-08-28T08:22:58.214Z,30.20
2018-08-28T08:25:26.487Z,30.50
2018-08-28T08:27:54.826Z,28.50
2018-08-28T08:30:23.052Z,29.50
2018-08-28T08:32:51.722Z,29.30
2018-08-28T08:35:20.094Z,28.90
2018-08-28T08:37:48.390Z,29.70
2018-08-28T08:40:16.657Z,30.40
2018-08-28T08:42:44.902Z,30.80
2018-08-28T08:45:13.191Z,30.90
2018-08-28T08:47:41.472Z,30.20
2018-08-28T08:50:09.902Z,29.50
2018-08-28T08:52:38.169Z,29.50
2018-08-28T08:55:06.428Z,30.10
2018-08-28T08:57:34.727Z,30.60
2018-08-28T09:00:03.082Z,30.10
2018-08-28T09:02:31.479Z,31.10
2018-08-28T09:04:59.855Z,31.50
2018-08-28T09:07:28.139Z,32.20
2018-08-28T09:09:56.430Z,32.70
2018-08-28T09:12:24.742Z,32.00
2018-08-28T09:14:53.003Z,32.00
2018-08-28T09:17:21.342Z,32.00
2018-08-28T09:19:49.653Z,32.40
2018-08-28T09:22:18.002Z,32.30
2018-08-28T09:24:46.382Z,32.60
2018-08-28T09:27:14.635Z,33.00
2018-08-28T09:29:42.911Z,31.70
2018-08-28T09:32:11.320Z,30.50
2018-08-28T09:34:39.638Z,30.90
2018-08-28T09:37:07.973Z,31.90
2018-08-28T09:39:36.267Z,32.20
2018-08-28T09:42:04.574Z,31.90
2018-08-28T09:44:32.916Z,30.50
2018-08-28T09:47:01.396Z,30.70
2018-08-28T09:49:29.679Z,30.20
2018-08-28T09:51:57.952Z,30.80
2018-08-28T09:54:26.247Z,31.20
2018-08-28T09:56:54.816Z,31.20
2018-08-28T09:59:23.123Z,31.50
2018-08-28T10:01:51.468Z,31.40
2018-08-28T10:04:19.749Z,31.30
2018-08-28T10:06:48.043Z,32.10
2018-08-28T10:09:17.650Z,32.40
2018-08-28T10:11:46.010Z,32.80
2018-08-28T10:14:14.302Z,33.10
2018-08-28T10:16:42.565Z,33.10
2018-08-28T10:19:10.948Z,32.50
2018-08-28T10:21:39.431Z,31.90
2018-08-28T10:24:07.835Z,31.80
2018-08-28T10:26:36.133Z,31.70
2018-08-28T10:29:04.454Z,31.80
2018-08-28T10:31:32.763Z,31.70
2018-08-28T10:34:01.082Z,30.70
2018-08-28T10:36:29.393Z,29.60
2018-08-28T10:38:57.692Z,28.60
2018-08-28T10:41:26.020Z,27.90
2018-08-28T10:43:54.290Z,27.00
2018-08-28T10:46:22.695Z,26.10
2018-08-28T10:48:50.999Z,25.30
2018-08-28T10:51:19.292Z,25.10
2018-08-28T10:53:47.961Z,24.70
2018-08-28T10:56:16.357Z,24.60
2018-08-28T10:58:44.761Z,24.60
2018-08-28T11:01:12.990Z,24.50
2018-08-28T11:03:41.535Z,24.60
2018-08-28T11:06:09.801Z,24.60
2018-08-28T11:08:38.136Z,24.50
2018-08-28T11:11:06.455Z,24.50
2018-08-28T11:13:34.757Z,24.30
2018-08-28T11:16:03.086Z,24.20
2018-08-28T11:18:31.453Z,23.80
2018-08-28T11:20:59.958Z,23.30
2018-08-28T11:23:28.232Z,23.00
2018-08-28T11:25:56.510Z,22.50
2018-08-28T11:28:24.779Z,22.20
2018-08-28T11:30:53.057Z,22.20
2018-08-28T11:33:21.333Z,22.20
2018-08-28T11:35:49.697Z,22.00
2018-08-28T11:38:17.965Z,22.10
2018-08-28T11:40:46.334Z,22.10
2018-08-28T11:43:14.610Z,21.80
2018-08-28T11:45:42.916Z,22.00
2018-08-28T11:48:11.162Z,21.80
2018-08-28T11:50:39.490Z,21.90
2018-08-28T11:53:07.806Z,21.90
2018-08-28T11:55:36.086Z,21.90
2018-08-28T11:58:04.735Z,22.00
2018-08-28T12:00:32.998Z,22.10
2018-08-28T12:03:01.284Z,22.20
2018-08-28T12:05:29.733Z,22.00
2018-08-28T12:07:57.941Z,21.90
2018-08-28T12:10:26.226Z,21.90
2018-08-28T12:12:54.521Z,21.80
2018-08-28T12:15:22.803Z,21.90
2018-08-28T12:17:51.088Z,21.90
2018-08-28T12:20:19.424Z,22.00
2018-08-28T12:22:47.699Z,22.00
2018-08-28T12:25:16.055Z,21.90
2018-08-28T12:27:44.353Z,21.90
2018-08-28T12:30:12.663Z,21.90
2018-08-28T12:32:40.924Z,22.00
2018-08-28T12:35:09.227Z,22.10
2018-08-28T12:37:37.560Z,22.00
2018-08-28T12:40:06.062Z,22.00
2018-08-28T12:42:34.421Z,21.90
2018-08-28T12:45:02.726Z,21.90
2018-08-28T12:47:31.284Z,21.90
2018-08-28T12:49:59.577Z,21.90
2018-08-28T12:52:27.829Z,21.90
2018-08-28T12:54:56.344Z,21.90
2018-08-28T12:57:24.836Z,22.00
2018-08-28T12:59:53.127Z,22.10
2018-08-28T13:02:21.585Z,22.10
2018-08-28T13:04:49.781Z,22.00
2018-08-28T13:07:18.159Z,22.00
2018-08-28T13:09:46.400Z,21.90
2018-08-28T13:12:14.650Z,21.80
2018-08-28T13:14:43.015Z,21.80
2018-08-28T13:17:11.183Z,21.80
2018-08-28T13:19:39.647Z,21.80
2018-08-28T13:22:08.093Z,21.90
2018-08-28T13:24:36.613Z,22.00
2018-08-28T13:27:04.931Z,22.10
2018-08-28T13:29:33.443Z,22.10
2018-08-28T13:32:01.923Z,22.10
2018-08-28T13:34:30.227Z,22.10
2018-08-28T13:36:58.686Z,22.20
2018-08-28T13:39:27.052Z,22.20
2018-08-28T13:41:55.318Z,22.20
2018-08-28T13:44:23.603Z,22.20
2018-08-28T13:46:51.925Z,22.30
2018-08-28T13:49:20.199Z,22.30
2018-08-28T13:51:48.548Z,22.40
2018-08-28T13:54:16.830Z,22.50
2018-08-28T13:56:45.104Z,22.50
2018-08-28T13:59:13.394Z,22.60
2018-08-28T14:01:41.640Z,22.70
2018-08-28T14:04:10.093Z,22.60
2018-08-28T14:06:38.418Z,22.60
2018-08-28T14:09:06.754Z,22.60
2018-08-28T14:11:35.197Z,22.50
2018-08-28T14:14:03.576Z,22.40
2018-08-28T14:16:31.833Z,22.50
2018-08-28T14:19:00.123Z,22.50
2018-08-28T14:21:28.351Z,22.40
2018-08-28T14:23:56.614Z,22.40
2018-08-28T14:26:24.943Z,22.40
2018-08-28T14:28:53.546Z,22.30
2018-08-28T14:31:21.761Z,22.30
2018-08-28T14:33:50.046Z,22.30
2018-08-28T14:36:18.347Z,22.30
2018-08-28T14:38:46.653Z,22.30
2018-08-28T14:41:14.897Z,22.30
2018-08-28T14:43:43.154Z,22.30
2018-08-28T14:46:11.472Z,22.30
2018-08-28T14:48:39.735Z,22.30
2018-08-28T14:51:08.434Z,22.30
2018-08-28T14:53:36.714Z,22.30
2018-08-28T14:56:05.044Z,22.40
2018-08-28T14:58:33.295Z,22.60
2018-08-28T15:01:01.872Z,22.60
2018-08-28T15:03:30.185Z,22.60
2018-08-28T15:05:58.609Z,22.50
2018-08-28T15:08:26.888Z,22.50
2018-08-28T15:10:55.186Z,22.50
2018-08-28T15:13:23.447Z,22.40
2018-08-28T15:15:51.721Z,22.30
2018-08-28T15:18:20.019Z,22.30
2018-08-28T15:20:48.359Z,22.30
2018-08-28T15:23:16.661Z,22.40
2018-08-28T15:25:45.036Z,22.30
2018-08-28T15:28:13.301Z,22.20
2018-08-28T15:30:41.692Z,22.20
2018-08-28T15:33:09.983Z,22.20
2018-08-28T15:35:38.565Z,22.30
2018-08-28T15:38:06.864Z,22.30
2018-08-28T15:40:35.140Z,22.50
2018-08-28T15:43:03.524Z,22.50
2018-08-28T15:45:31.769Z,22.50
2018-08-28T15:48:00.060Z,22.60
2018-08-28T15:50:28.375Z,22.60
2018-08-28T15:52:56.645Z,22.70
2018-08-28T15:55:25.099Z,22.60
2018-08-28T15:57:53.362Z,22.50
2018-08-28T16:00:21.706Z,22.40
2018-08-28T16:02:50.021Z,22.40
2018-08-28T16:05:18.339Z,22.30
2018-08-28T16:07:46.632Z,22.20
2018-08-28T16:10:14.912Z,22.20
2018-08-28T16:12:43.181Z,22.10
2018-08-28T16:15:11.507Z,22.20
2018-08-28T16:17:39.773Z,22.30
2018-08-28T16:20:08.162Z,22.30
2018-08-28T16:22:45.384Z,22.20
2018-08-28T16:25:13.707Z,22.10
2018-08-28T16:27:41.985Z,22.10
2018-08-28T16:30:10.308Z,22.20
2018-08-28T16:32:38.701Z,22.20
2018-08-28T16:35:06.996Z,22.20
2018-08-28T16:37:35.317Z,22.20
2018-08-28T16:40:03.764Z,22.10
2018-08-28T16:42:32.084Z,22.20
2018-08-28T16:45:00.763Z,22.20
2018-08-28T16:47:29.078Z,22.20
2018-08-28T16:49:57.361Z,22.20
2018-08-28T16:52:25.634Z,22.20
2018-08-28T16:54:54.010Z,22.20
2018-08-28T16:57:22.297Z,22.20
2018-08-28T16:59:50.598Z,22.20
2018-08-28T17:02:18.927Z,22.10
2018-08-28T17:04:47.202Z,22.10
2018-08-28T17:07:15.634Z,22.20
2018-08-28T17:09:44.298Z,22.10
2018-08-28T17:12:12.614Z,22.10
2018-08-28T17:14:40.883Z,22.00
2018-08-28T17:17:09.170Z,21.90
2018-08-28T17:19:37.446Z,21.90
2018-08-28T17:22:05.968Z,21.90
2018-08-28T17:24:34.245Z,21.90
2018-08-28T17:27:02.609Z,21.80
2018-08-28T17:29:30.974Z,21.80
2018-08-28T17:31:59.271Z,21.70
2018-08-28T17:34:27.643Z,21.50
2018-08-28T17:36:56.069Z,21.50
2018-08-28T17:39:24.279Z,21.40
2018-08-28T17:41:52.580Z,21.40
2018-08-28T17:44:20.950Z,21.30
2018-08-28T17:46:49.312Z,21.20
2018-08-28T17:49:17.797Z,21.20
2018-08-28T17:51:46.809Z,21.20
2018-08-28T17:54:15.240Z,21.10
2018-08-28T17:56:43.581Z,21.00
2018-08-28T17:59:11.862Z,21.00
2018-08-28T18:01:40.146Z,20.90
2018-08-28T18:04:08.620Z,20.90
2018-08-28T18:06:36.877Z,20.80
2018-08-28T18:09:06.123Z,20.70
2018-08-28T18:11:34.613Z,20.50
2018-08-28T18:14:03.004Z,20.40
2018-08-28T18:16:31.398Z,20.30
2018-08-28T18:19:00.135Z,20.20
2018-08-28T18:21:28.403Z,20.10
2018-08-28T18:23:56.983Z,19.90
2018-08-28T18:26:25.250Z,19.80
2018-08-28T18:28:53.554Z,19.70
2018-08-28T18:31:21.797Z,19.60
2018-08-28T18:33:50.097Z,19.60
2018-08-28T18:36:18.350Z,19.40
2018-08-28T18:38:46.651Z,19.30
2018-08-28T18:41:14.987Z,19.20
2018-08-28T18:43:43.221Z,19.10
2018-08-28T18:46:11.556Z,19.00
2018-08-28T18:48:39.852Z,18.90
2018-08-28T18:51:08.239Z,18.80
2018-08-28T18:53:36.498Z,18.70
2018-08-28T18:56:04.858Z,18.60
2018-08-28T18:58:33.068Z,18.60
2018-08-28T19:01:01.334Z,18.50
2018-08-28T19:03:29.703Z,18.40
2018-08-28T19:05:58.248Z,18.30
2018-08-28T19:08:26.632Z,18.30
2018-08-28T19:10:55.061Z,18.20
2018-08-28T19:13:23.559Z,18.20
2018-08-28T19:15:52.157Z,18.10
2018-08-28T19:18:20.626Z,18.10
2018-08-28T19:20:49.047Z,18.00
2018-08-28T19:23:17.421Z,18.00
2018-08-28T19:25:45.721Z,17.90
2018-08-28T19:28:13.994Z,17.80
2018-08-28T19:30:42.328Z,17.70
2018-08-28T19:33:10.706Z,17.70
2018-08-28T19:35:39.001Z,17.60
2018-08-28T19:38:07.873Z,17.50
2018-08-28T19:40:36.255Z,17.40
2018-08-28T19:43:04.792Z,17.40
2018-08-28T19:45:33.053Z,17.30
2018-08-28T19:48:01.686Z,17.30
2018-08-28T19:50:30.008Z,17.40
2018-08-28T19:52:58.338Z,17.30
2018-08-28T19:55:26.643Z,17.30
2018-08-28T19:57:54.942Z,17.30
2018-08-28T20:00:23.255Z,17.20
2018-08-28T20:02:51.541Z,17.20
2018-08-28T20:05:19.810Z,17.10
2018-08-28T20:07:48.059Z,17.10
2018-08-28T20:10:16.390Z,17.00
2018-08-28T20:12:44.946Z,17.00
2018-08-28T20:15:13.403Z,17.00
2018-08-28T20:17:41.679Z,16.90
2018-08-28T20:20:10.310Z,16.90
2018-08-28T20:22:38.558Z,16.90
2018-08-28T20:25:06.918Z,16.80
2018-08-28T20:27:35.231Z,16.80
2018-08-28T20:30:03.620Z,16.80
2018-08-28T20:32:31.881Z,16.80
2018-08-28T20:35:00.417Z,16.70
2018-08-28T20:37:28.886Z,16.70
2018-08-28T20:39:57.051Z,16.60
2018-08-28T20:42:25.308Z,16.60
2018-08-28T20:44:53.724Z,16.60
2018-08-28T20:47:21.993Z,16.50
2018-08-28T20:49:50.619Z,16.50
2018-08-28T20:52:19.240Z,16.40
2018-08-28T20:54:47.657Z,16.40
2018-08-28T20:57:16.341Z,16.40
2018-08-28T20:59:44.695Z,16.40
2018-08-28T21:02:12.973Z,16.30
2018-08-28T21:04:41.324Z,16.30
2018-08-28T21:07:09.654Z,16.20
2018-08-28T21:09:37.949Z,16.20
2018-08-28T21:12:06.585Z,16.10
2018-08-28T21:14:34.877Z,16.00
2018-08-28T21:17:03.447Z,15.90
2018-08-28T21:19:31.715Z,15.80
2018-08-28T21:21:59.993Z,15.60
2018-08-28T21:24:28.417Z,15.50
2018-08-28T21:26:56.898Z,15.50
2018-08-28T21:29:25.291Z,15.40
2018-08-28T21:31:53.506Z,15.40
2018-08-28T21:34:22.009Z,15.40
2018-08-28T21:36:50.332Z,15.30
2018-08-28T21:39:18.601Z,15.30
2018-08-28T21:41:46.878Z,15.30
2018-08-28T21:44:15.142Z,15.20
2018-08-28T21:46:43.533Z,15.20
2018-08-28T21:49:11.920Z,15.10
2018-08-28T21:51:40.207Z,15.00
2018-08-28T21:54:08.574Z,15.00
2018-08-28T21:56:36.850Z,14.90
2018-08-28T21:59:05.987Z,14.90
2018-08-28T22:01:34.325Z,14.90
2018-08-28T22:04:02.586Z,14.90
2018-08-28T22:06:36.445Z,14.80
2018-08-28T22:09:05.601Z,14.80
2018-08-28T22:11:34.275Z,14.80
2018-08-28T22:14:02.542Z,14.70
2018-08-28T22:16:30.866Z,14.70
2018-08-28T22:18:59.326Z,14.60
2018-08-28T22:21:27.682Z,14.60
2018-08-28T22:23:55.970Z,14.60
2018-08-28T22:26:24.258Z,14.50
2018-08-28T22:28:52.519Z,14.50
2018-08-28T22:31:21.838Z,14.40
2018-08-28T22:33:50.098Z,14.40
2018-08-28T22:36:18.357Z,14.40
2018-08-28T22:38:46.643Z,14.40
2018-08-28T22:41:14.948Z,14.40
2018-08-28T22:43:43.176Z,14.30
2018-08-28T22:46:11.496Z,14.30
2018-08-28T22:48:39.786Z,14.30
2018-08-28T22:51:08.071Z,14.30
2018-08-28T22:53:36.338Z,14.20
2018-08-28T22:56:04.599Z,14.20
2018-08-28T22:58:32.878Z,14.10
2018-08-28T23:01:01.150Z,14.10
2018-08-28T23:03:29.457Z,14.00
2018-08-28T23:05:57.787Z,14.00
2018-08-28T23:08:26.068Z,14.00
2018-08-28T23:10:54.362Z,13.90
2018-08-28T23:13:22.628Z,13.90
2018-08-28T23:15:50.939Z,13.90
2018-08-28T23:18:19.235Z,13.90
2018-08-28T23:20:47.524Z,13.80
2018-08-28T23:23:15.774Z,13.80
2018-08-28T23:25:44.060Z,13.80
2018-08-28T23:28:12.372Z,13.70
2018-08-28T23:30:40.658Z,13.70
2018-08-28T23:33:08.902Z,13.70
2018-08-28T23:35:37.189Z,13.60
2018-08-28T23:38:05.734Z,13.60
2018-08-28T23:40:34.038Z,13.60
2018-08-28T23:43:02.316Z,13.70
2018-08-28T23:45:30.694Z,13.60
2018-08-28T23:47:58.930Z,13.70
2018-08-28T23:50:27.192Z,13.70
2018-08-28T23:52:55.437Z,13.60
2018-08-28T23:55:23.722Z,13.60
2018-08-28T23:57:52.008Z,13.50
